Startpagina
METAR-TAF:

METAR-TAF

Vliegvelden :

Labuan, Maleisië

breedte: 05-18N, lengte: 115-15E, hoogte: 30 m

Actueel weer

Dit bericht is 25 minuten geleden gemaakt, om 06:00 UTC
Wind 4 kt uit het westen, variërend tussen het zuiden en het noordnoordwesten
Temperatuur 33°C
Vochtigheid 63%
Druk 1006 hPa
Zicht 10 km of meer
Weinig wolken op 1600 ft

METAR: WBKL 250600Z 26004KT 180V340 9999 FEW016 33/25 Q1006

Tijdstip: 14:25 (06:25 UTC)

Verwachting

Dit bericht is 1 uur en het 25 minuten geleden gemaakt, om 05:00 UTC
Verwachting geldig van 25 om 06 UTC tot 26 om 06 UTC
Wind 5 kt uit het zuidwesten
Zicht 10 km of meer
Weinig wolken op 1600 ft

TAF: WBKL 250500Z 2506/2606 23005KT 9999 FEW016

Waarnemingen en weersverwachtingen van meer dan 4000 vliegvelden (METAR en TAF).

De beschikbare stations zijn de gele en rode punten op de kaart.

Ga met uw muis naar het station om de naam te zien.

Klik dan om waarnemingen en weersverwachtingen te zien.

kaart wijzigen: klik op de groene knoppen met een zwart kruis om in te zoomen, op de groene knop met een streepje om uit te zoomen of op de groene pijlen voor aangrenzende kaarten.


METAR-TAF: